Olib — 9AA6266 — position and weather

sailwx.info

Track history (hours):
 
Tides and Currents Weather Stations Pressure Air Temp Water Temp Dewpoint Dewpoint Depression Visibility Wind Speed Wind Dir Waves Ship Positions

Olib

Last reported at 2016-Feb-10 11:32 UTC. Time now 2016-Feb-14 23:10 UTC.
Position N 37°28' E 023°48'.

Length 247 m; draft 8 m.

Type: Ship. MMSI: 238252000.

Date/timePositionNaut miles runAvg speedWind from/ knotsBaromVisibWave heightAir tempDewpointWater temp
2016-Feb-10 11:32N 37°28' E 023°48'1010.4
2016-Feb-10 10:33N 37°38' E 023°43'1110.7
2016-Feb-10 09:33N 37°47' E 023°38'9 9.4
2016-Feb-10 08:33N 37°57' E 023°36'5 5.0
2016-Feb-10 07:33N 38°01' E 023°32'0 0.0
2016-Feb-10 06:33N 38°01' E 023°32'0 0.0
2016-Feb-10 05:33N 38°01' E 023°32'0 0.0
2016-Feb-10 04:33N 38°01' E 023°32'0 0.1
2016-Feb-10 03:33N 38°01' E 023°32'0 0.0
2016-Feb-10 02:33N 38°01' E 023°32'0 0.2
2016-Feb-10 01:33N 38°01' E 023°32'0 0.1
2016-Feb-10 00:33N 38°01' E 023°32'3 2.5
2016-Feb-09 23:31N 38°01' E 023°36'0 0.0
2016-Feb-09 22:34N 38°01' E 023°36'0 0.0
2016-Feb-09 21:33N 38°01' E 023°36'0 0.0
2016-Feb-09 20:27N 38°01' E 023°36'0 0.0
2016-Feb-09 19:33N 38°01' E 023°36'0 0.0
2016-Feb-09 18:33N 38°01' E 023°36'0 0.0
2016-Feb-09 17:33N 38°01' E 023°36'0 0.0
2016-Feb-09 16:34N 38°01' E 023°36'0 0.0
2016-Feb-09 15:33N 38°01' E 023°36'0 0.0
2016-Feb-09 14:33N 38°01' E 023°36'0 0.0
2016-Feb-09 13:33N 38°01' E 023°36'0 0.0
2016-Feb-09 12:33N 38°01' E 023°36'0 0.0
2016-Feb-09 11:33N 38°01' E 023°36'0 0.0
2016-Feb-09 10:34N 38°01' E 023°36'0 0.0
2016-Feb-09 09:33N 38°01' E 023°36'0 0.0
2016-Feb-09 08:33N 38°01' E 023°36'0 0.0
2016-Feb-09 07:34N 38°01' E 023°36'0 0.0
2016-Feb-09 06:33N 38°01' E 023°36'0 0.0
2016-Feb-09 05:33N 38°01' E 023°36'0 0.0
2016-Feb-09 04:33N 38°01' E 023°36'0 0.0
2016-Feb-09 03:33N 38°01' E 023°36'0 0.0
2016-Feb-09 02:34N 38°01' E 023°36'0 0.0
2016-Feb-09 01:33N 38°01' E 023°36'0 0.0
2016-Feb-09 00:33N 38°01' E 023°36'0 0.0
2016-Feb-08 23:34N 38°01' E 023°36'0 0.0
2016-Feb-08 22:33N 38°01' E 023°36'0 0.0
2016-Feb-08 21:33N 38°01' E 023°36'0 0.0
2016-Feb-08 20:34N 38°01' E 023°36'0 0.0
2016-Feb-08 19:33N 38°01' E 023°36'0 0.0
2016-Feb-08 18:34N 38°01' E 023°36'0 0.0
2016-Feb-08 17:34N 38°01' E 023°36'0 0.0
2016-Feb-08 16:33N 38°01' E 023°36'0 0.0
2016-Feb-08 15:34N 38°01' E 023°36'0 0.0
2016-Feb-08 14:33N 38°01' E 023°36'0 0.5
2016-Feb-08 13:34N 38°01' E 023°35'4 0.1
2016-Feb-06 12:27N 38°02' E 023°31'0 0.0
2016-Feb-06 08:21N 38°02' E 023°31'0 0.0
2016-Feb-06 07:30N 38°02' E 023°31'0 0.0
2016-Feb-06 06:21N 38°02' E 023°31'0 0.0
2016-Feb-06 05:33N 38°02' E 023°31'0 0.0
2016-Feb-06 04:33N 38°02' E 023°31'0 0.0
2016-Feb-05 22:27N 38°02' E 023°31'0 0.0
2016-Feb-05 21:33N 38°02' E 023°31'0 0.0
2016-Feb-05 19:27N 38°02' E 023°31'0 0.0
2016-Feb-05 18:30N 38°02' E 023°31'0 0.0
2016-Feb-05 17:30N 38°02' E 023°31'0 0.3
2016-Feb-05 16:33N 38°02' E 023°31'4 3.7
2016-Feb-05 15:33N 37°58' E 023°33'6 5.7
2016-Feb-05 14:33N 37°54' E 023°37'1 1.5
2016-Feb-05 13:33N 37°53' E 023°38'7 7.4
2016-Feb-05 12:33N 37°46' E 023°42'9 9.0
2016-Feb-05 11:33N 37°37' E 023°46'14410.0
2016-Feb-04 21:05N 39°50' E 024°57'711.6
2016-Feb-04 20:30N 39°56' E 024°53'1111.8
2016-Feb-04 19:33N 40°07' E 024°47'1211.8
2016-Feb-04 18:33N 40°18' E 024°42'8 8.3
2016-Feb-04 17:33N 40°26' E 024°39'5 1.3
2016-Feb-04 13:33N 40°28' E 024°45'11 2.8
2016-Feb-04 09:32N 40°18' E 024°52'2 2.2
2016-Feb-04 08:29N 40°16' E 024°52'0 0.4
2016-Feb-04 07:33N 40°16' E 024°52'3 2.5
2016-Feb-04 06:32N 40°13' E 024°52'4 2.2
2016-Feb-04 04:31N 40°09' E 024°51'6 2.7
2016-Feb-04 02:15N 40°03' E 024°49'1 1.2
2016-Feb-04 01:16N 40°02' E 024°49'1 1.3
2016-Feb-04 00:33N 40°01' E 024°49'2 1.5
2016-Feb-03 23:33N 39°59' E 024°49'4 1.4
2016-Feb-03 20:33N 39°55' E 024°51'3 2.8
2016-Feb-03 19:33N 39°56' E 024°47'4 3.8
2016-Feb-03 18:33N 39°58' E 024°43'1 1.1
2016-Feb-03 17:22N 39°58' E 024°41'4 4.4
2016-Feb-03 16:33N 39°56' E 024°44'5 4.5
2016-Feb-03 15:24N 39°52' E 024°50'3 3.2
2016-Feb-03 14:29N 39°50' E 024°53'1 0.7
2016-Feb-03 13:03N 39°49' E 024°53'3 5.0
2016-Feb-03 12:26N 39°51' E 024°50'  
Track history (hours):
 
Tides and Currents Weather Stations Pressure Air Temp Water Temp Dewpoint Dewpoint Depression Visibility Wind Speed Wind Dir Waves Ship Positions

Olib

Last reported at 2016-Feb-10 11:32 UTC. Time now 2016-Feb-14 23:10 UTC.
Position N 37°28' E 023°48'.

Length 247 m; draft 8 m.

Type: Ship. MMSI: 238252000.

Date/timePositionNaut miles runAvg speedWind from/ knotsBaromVisibWave heightAir tempDewpointWater temp
2016-Feb-10 11:32N 37°28' E 023°48'1010.4
2016-Feb-10 10:33N 37°38' E 023°43'1110.7
2016-Feb-10 09:33N 37°47' E 023°38'9 9.4
2016-Feb-10 08:33N 37°57' E 023°36'5 5.0
2016-Feb-10 07:33N 38°01' E 023°32'0 0.0
2016-Feb-10 06:33N 38°01' E 023°32'0 0.0
2016-Feb-10 05:33N 38°01' E 023°32'0 0.0
2016-Feb-10 04:33N 38°01' E 023°32'0 0.1
2016-Feb-10 03:33N 38°01' E 023°32'0 0.0
2016-Feb-10 02:33N 38°01' E 023°32'0 0.2
2016-Feb-10 01:33N 38°01' E 023°32'0 0.1
2016-Feb-10 00:33N 38°01' E 023°32'3 2.5
2016-Feb-09 23:31N 38°01' E 023°36'0 0.0
2016-Feb-09 22:34N 38°01' E 023°36'0 0.0
2016-Feb-09 21:33N 38°01' E 023°36'0 0.0
2016-Feb-09 20:27N 38°01' E 023°36'0 0.0
2016-Feb-09 19:33N 38°01' E 023°36'0 0.0
2016-Feb-09 18:33N 38°01' E 023°36'0 0.0
2016-Feb-09 17:33N 38°01' E 023°36'0 0.0
2016-Feb-09 16:34N 38°01' E 023°36'0 0.0
2016-Feb-09 15:33N 38°01' E 023°36'0 0.0
2016-Feb-09 14:33N 38°01' E 023°36'0 0.0
2016-Feb-09 13:33N 38°01' E 023°36'0 0.0
2016-Feb-09 12:33N 38°01' E 023°36'0 0.0
2016-Feb-09 11:33N 38°01' E 023°36'0 0.0
2016-Feb-09 10:34N 38°01' E 023°36'0 0.0
2016-Feb-09 09:33N 38°01' E 023°36'0 0.0
2016-Feb-09 08:33N 38°01' E 023°36'0 0.0
2016-Feb-09 07:34N 38°01' E 023°36'0 0.0
2016-Feb-09 06:33N 38°01' E 023°36'0 0.0
2016-Feb-09 05:33N 38°01' E 023°36'0 0.0
2016-Feb-09 04:33N 38°01' E 023°36'0 0.0
2016-Feb-09 03:33N 38°01' E 023°36'0 0.0
2016-Feb-09 02:34N 38°01' E 023°36'0 0.0
2016-Feb-09 01:33N 38°01' E 023°36'0 0.0
2016-Feb-09 00:33N 38°01' E 023°36'0 0.0
2016-Feb-08 23:34N 38°01' E 023°36'0 0.0
2016-Feb-08 22:33N 38°01' E 023°36'0 0.0
2016-Feb-08 21:33N 38°01' E 023°36'0 0.0
2016-Feb-08 20:34N 38°01' E 023°36'0 0.0
2016-Feb-08 19:33N 38°01' E 023°36'0 0.0
2016-Feb-08 18:34N 38°01' E 023°36'0 0.0
2016-Feb-08 17:34N 38°01' E 023°36'0 0.0
2016-Feb-08 16:33N 38°01' E 023°36'0 0.0
2016-Feb-08 15:34N 38°01' E 023°36'0 0.0
2016-Feb-08 14:33N 38°01' E 023°36'0 0.5
2016-Feb-08 13:34N 38°01' E 023°35'4 0.1
2016-Feb-06 12:27N 38°02' E 023°31'0 0.0
2016-Feb-06 08:21N 38°02' E 023°31'0 0.0
2016-Feb-06 07:30N 38°02' E 023°31'0 0.0
2016-Feb-06 06:21N 38°02' E 023°31'0 0.0
2016-Feb-06 05:33N 38°02' E 023°31'0 0.0
2016-Feb-06 04:33N 38°02' E 023°31'0 0.0
2016-Feb-05 22:27N 38°02' E 023°31'0 0.0
2016-Feb-05 21:33N 38°02' E 023°31'0 0.0
2016-Feb-05 19:27N 38°02' E 023°31'0 0.0
2016-Feb-05 18:30N 38°02' E 023°31'0 0.0
2016-Feb-05 17:30N 38°02' E 023°31'0 0.3
2016-Feb-05 16:33N 38°02' E 023°31'4 3.7
2016-Feb-05 15:33N 37°58' E 023°33'6 5.7
2016-Feb-05 14:33N 37°54' E 023°37'1 1.5
2016-Feb-05 13:33N 37°53' E 023°38'7 7.4
2016-Feb-05 12:33N 37°46' E 023°42'9 9.0
2016-Feb-05 11:33N 37°37' E 023°46'14410.0
2016-Feb-04 21:05N 39°50' E 024°57'711.6
2016-Feb-04 20:30N 39°56' E 024°53'1111.8
2016-Feb-04 19:33N 40°07' E 024°47'1211.8
2016-Feb-04 18:33N 40°18' E 024°42'8 8.3
2016-Feb-04 17:33N 40°26' E 024°39'5 1.3
2016-Feb-04 13:33N 40°28' E 024°45'11 2.8
2016-Feb-04 09:32N 40°18' E 024°52'2 2.2
2016-Feb-04 08:29N 40°16' E 024°52'0 0.4
2016-Feb-04 07:33N 40°16' E 024°52'3 2.5
2016-Feb-04 06:32N 40°13' E 024°52'4 2.2
2016-Feb-04 04:31N 40°09' E 024°51'6 2.7
2016-Feb-04 02:15N 40°03' E 024°49'1 1.2
2016-Feb-04 01:16N 40°02' E 024°49'1 1.3
2016-Feb-04 00:33N 40°01' E 024°49'2 1.5
2016-Feb-03 23:33N 39°59' E 024°49'4 1.4
2016-Feb-03 20:33N 39°55' E 024°51'3 2.8
2016-Feb-03 19:33N 39°56' E 024°47'4 3.8
2016-Feb-03 18:33N 39°58' E 024°43'1 1.1
2016-Feb-03 17:22N 39°58' E 024°41'4 4.4
2016-Feb-03 16:33N 39°56' E 024°44'5 4.5
2016-Feb-03 15:24N 39°52' E 024°50'3 3.2
2016-Feb-03 14:29N 39°50' E 024°53'1 0.7
2016-Feb-03 13:03N 39°49' E 024°53'3 5.0
2016-Feb-03 12:26N 39°51' E 024°50'  

Dump ship's entire track history